sensor_id;sensor_type;location;lat;lon;timestamp;P1;durP1;ratioP1;P2;durP2;ratioP2
25083;SDS011;13075;55.682;37.564;2023-02-02T00:02:03;33.15;;;15.55;;
25083;SDS011;13075;55.682;37.564;2023-02-02T00:04:32;33.78;;;15.65;;
25083;SDS011;13075;55.682;37.564;2023-02-02T00:06:59;40.28;;;17.20;;
25083;SDS011;13075;55.682;37.564;2023-02-02T00:09:26;33.08;;;16.80;;
25083;SDS011;13075;55.682;37.564;2023-02-02T00:11:53;36.40;;;16.20;;
25083;SDS011;13075;55.682;37.564;2023-02-02T00:14:19;32.10;;;16.50;;
25083;SDS011;13075;55.682;37.564;2023-02-02T00:16:46;30.88;;;16.83;;
25083;SDS011;13075;55.682;37.564;2023-02-02T00:19:27;33.20;;;15.68;;
25083;SDS011;13075;55.682;37.564;2023-02-02T00:21:57;29.25;;;14.85;;
25083;SDS011;13075;55.682;37.564;2023-02-02T00:24:23;27.40;;;13.90;;
25083;SDS011;13075;55.682;37.564;2023-02-02T00:26:50;27.02;;;15.43;;
25083;SDS011;13075;55.682;37.564;2023-02-02T00:29:19;31.70;;;16.02;;
25083;SDS011;13075;55.682;37.564;2023-02-02T00:31:52;31.92;;;15.35;;
25083;SDS011;13075;55.682;37.564;2023-02-02T00:34:19;30.70;;;15.57;;
25083;SDS011;13075;55.682;37.564;2023-02-02T00:36:45;27.25;;;13.32;;
25083;SDS011;13075;55.682;37.564;2023-02-02T00:39:14;30.13;;;15.00;;
25083;SDS011;13075;55.682;37.564;2023-02-02T00:41:44;30.98;;;14.32;;
25083;SDS011;13075;55.682;37.564;2023-02-02T00:44:10;31.60;;;14.40;;
25083;SDS011;13075;55.682;37.564;2023-02-02T00:46:55;28.65;;;14.65;;
25083;SDS011;13075;55.682;37.564;2023-02-02T00:49:21;29.00;;;13.93;;
25083;SDS011;13075;55.682;37.564;2023-02-02T00:51:47;27.20;;;13.60;;
25083;SDS011;13075;55.682;37.564;2023-02-02T00:54:12;28.67;;;14.77;;
25083;SDS011;13075;55.682;37.564;2023-02-02T00:56:41;26.88;;;13.30;;
25083;SDS011;13075;55.682;37.564;2023-02-02T00:59:07;29.45;;;13.93;;
25083;SDS011;13075;55.682;37.564;2023-02-02T01:01:32;22.33;;;12.65;;
25083;SDS011;13075;55.682;37.564;2023-02-02T01:03:58;28.20;;;13.63;;
25083;SDS011;13075;55.682;37.564;2023-02-02T01:06:24;25.45;;;13.40;;
25083;SDS011;13075;55.682;37.564;2023-02-02T01:08:50;24.38;;;12.23;;
25083;SDS011;13075;55.682;37.564;2023-02-02T01:11:16;25.30;;;12.35;;
25083;SDS011;13075;55.682;37.564;2023-02-02T01:13:42;23.58;;;13.07;;
25083;SDS011;13075;55.682;37.564;2023-02-02T01:16:08;26.08;;;14.02;;
25083;SDS011;13075;55.682;37.564;2023-02-02T01:18:34;32.58;;;14.73;;
25083;SDS011;13075;55.682;37.564;2023-02-02T01:21:01;26.50;;;13.13;;
25083;SDS011;13075;55.682;37.564;2023-02-02T01:23:29;26.20;;;14.30;;
25083;SDS011;13075;55.682;37.564;2023-02-02T01:25:57;36.95;;;15.95;;
25083;SDS011;13075;55.682;37.564;2023-02-02T01:28:24;26.25;;;14.00;;
25083;SDS011;13075;55.682;37.564;2023-02-02T01:30:53;26.88;;;12.73;;
25083;SDS011;13075;55.682;37.564;2023-02-02T01:33:20;28.10;;;14.90;;
25083;SDS011;13075;55.682;37.564;2023-02-02T01:35:48;24.17;;;13.10;;
25083;SDS011;13075;55.682;37.564;2023-02-02T01:38:17;30.63;;;13.38;;
25083;SDS011;13075;55.682;37.564;2023-02-02T01:40:48;32.47;;;15.07;;
25083;SDS011;13075;55.682;37.564;2023-02-02T01:43:59;28.38;;;14.00;;
25083;SDS011;13075;55.682;37.564;2023-02-02T01:46:23;29.48;;;13.18;;
25083;SDS011;13075;55.682;37.564;2023-02-02T01:51:44;34.75;;;17.88;;
25083;SDS011;13075;55.682;37.564;2023-02-02T01:54:14;35.33;;;15.68;;
25083;SDS011;13075;55.682;37.564;2023-02-02T01:56:46;29.25;;;14.45;;
25083;SDS011;13075;55.682;37.564;2023-02-02T01:59:19;27.13;;;13.90;;
25083;SDS011;13075;55.682;37.564;2023-02-02T02:01:46;27.65;;;13.25;;
25083;SDS011;13075;55.682;37.564;2023-02-02T02:04:13;26.98;;;12.70;;
25083;SDS011;13075;55.682;37.564;2023-02-02T02:06:41;34.13;;;14.95;;
25083;SDS011;13075;55.682;37.564;2023-02-02T02:09:07;24.70;;;13.27;;
25083;SDS011;13075;55.682;37.564;2023-02-02T02:11:35;27.80;;;13.65;;
25083;SDS011;13075;55.682;37.564;2023-02-02T02:14:05;32.97;;;15.25;;
25083;SDS011;13075;55.682;37.564;2023-02-02T02:17:02;33.60;;;15.13;;
25083;SDS011;13075;55.682;37.564;2023-02-02T02:26:42;27.67;;;13.40;;
25083;SDS011;13075;55.682;37.564;2023-02-02T02:34:13;25.90;;;13.15;;
25083;SDS011;13075;55.682;37.564;2023-02-02T02:36:50;29.25;;;14.10;;
25083;SDS011;13075;55.682;37.564;2023-02-02T02:39:35;29.05;;;15.10;;
25083;SDS011;13075;55.682;37.564;2023-02-02T02:42:08;27.85;;;13.02;;
25083;SDS011;13075;55.682;37.564;2023-02-02T02:44:41;30.00;;;14.13;;
25083;SDS011;13075;55.682;37.564;2023-02-02T02:47:08;32.30;;;13.68;;
25083;SDS011;13075;55.682;37.564;2023-02-02T02:49:44;32.17;;;14.15;;
25083;SDS011;13075;55.682;37.564;2023-02-02T02:52:12;29.02;;;13.90;;
25083;SDS011;13075;55.682;37.564;2023-02-02T02:54:42;28.63;;;13.70;;
25083;SDS011;13075;55.682;37.564;2023-02-02T03:02:25;25.65;;;13.30;;
25083;SDS011;13075;55.682;37.564;2023-02-02T03:07:47;28.05;;;13.82;;
25083;SDS011;13075;55.682;37.564;2023-02-02T03:10:20;33.60;;;13.43;;
25083;SDS011;13075;55.682;37.564;2023-02-02T03:12:52;24.85;;;12.10;;
25083;SDS011;13075;55.682;37.564;2023-02-02T03:15:18;23.95;;;12.43;;
25083;SDS011;13075;55.682;37.564;2023-02-02T03:17:47;30.88;;;13.68;;
25083;SDS011;13075;55.682;37.564;2023-02-02T03:20:15;27.75;;;13.00;;
25083;SDS011;13075;55.682;37.564;2023-02-02T03:22:41;28.48;;;14.07;;
25083;SDS011;13075;55.682;37.564;2023-02-02T03:25:07;23.40;;;12.70;;
25083;SDS011;13075;55.682;37.564;2023-02-02T03:27:36;28.05;;;13.07;;
25083;SDS011;13075;55.682;37.564;2023-02-02T03:30:04;31.02;;;13.40;;
25083;SDS011;13075;55.682;37.564;2023-02-02T03:32:33;32.95;;;14.32;;
25083;SDS011;13075;55.682;37.564;2023-02-02T03:34:58;26.80;;;12.95;;
25083;SDS011;13075;55.682;37.564;2023-02-02T03:37:24;33.25;;;13.00;;
25083;SDS011;13075;55.682;37.564;2023-02-02T03:39:50;26.58;;;11.57;;
25083;SDS011;13075;55.682;37.564;2023-02-02T03:42:17;25.92;;;11.98;;
25083;SDS011;13075;55.682;37.564;2023-02-02T03:44:43;29.85;;;13.73;;
25083;SDS011;13075;55.682;37.564;2023-02-02T03:47:08;23.52;;;13.23;;
25083;SDS011;13075;55.682;37.564;2023-02-02T03:49:34;25.15;;;12.15;;
25083;SDS011;13075;55.682;37.564;2023-02-02T03:51:59;30.73;;;13.30;;
25083;SDS011;13075;55.682;37.564;2023-02-02T03:54:26;27.38;;;12.10;;
25083;SDS011;13075;55.682;37.564;2023-02-02T03:56:52;28.60;;;12.88;;
25083;SDS011;13075;55.682;37.564;2023-02-02T03:59:18;22.70;;;12.77;;
25083;SDS011;13075;55.682;37.564;2023-02-02T04:01:44;27.65;;;12.38;;
25083;SDS011;13075;55.682;37.564;2023-02-02T04:04:09;22.70;;;12.02;;
25083;SDS011;13075;55.682;37.564;2023-02-02T04:06:35;23.75;;;11.95;;
25083;SDS011;13075;55.682;37.564;2023-02-02T04:09:00;27.92;;;12.02;;
25083;SDS011;13075;55.682;37.564;2023-02-02T04:11:26;24.35;;;11.32;;
25083;SDS011;13075;55.682;37.564;2023-02-02T04:13:51;32.45;;;13.35;;
25083;SDS011;13075;55.682;37.564;2023-02-02T04:16:17;24.02;;;11.38;;
25083;SDS011;13075;55.682;37.564;2023-02-02T04:18:43;32.72;;;12.48;;
25083;SDS011;13075;55.682;37.564;2023-02-02T04:21:08;25.88;;;12.77;;
25083;SDS011;13075;55.682;37.564;2023-02-02T04:23:34;29.67;;;13.93;;
25083;SDS011;13075;55.682;37.564;2023-02-02T04:26:00;28.83;;;14.05;;
25083;SDS011;13075;55.682;37.564;2023-02-02T04:28:25;32.88;;;13.32;;
25083;SDS011;13075;55.682;37.564;2023-02-02T04:30:52;29.30;;;13.77;;
25083;SDS011;13075;55.682;37.564;2023-02-02T04:33:19;32.65;;;14.25;;
25083;SDS011;13075;55.682;37.564;2023-02-02T04:35:45;29.10;;;14.38;;
25083;SDS011;13075;55.682;37.564;2023-02-02T04:38:11;29.27;;;14.13;;
25083;SDS011;13075;55.682;37.564;2023-02-02T04:40:44;38.30;;;14.80;;
25083;SDS011;13075;55.682;37.564;2023-02-02T04:43:10;28.70;;;13.68;;
25083;SDS011;13075;55.682;37.564;2023-02-02T04:45:36;30.95;;;15.20;;
25083;SDS011;13075;55.682;37.564;2023-02-02T04:48:03;28.95;;;14.02;;
25083;SDS011;13075;55.682;37.564;2023-02-02T04:50:28;33.53;;;13.82;;
25083;SDS011;13075;55.682;37.564;2023-02-02T04:52:54;28.90;;;13.63;;
25083;SDS011;13075;55.682;37.564;2023-02-02T04:55:21;30.63;;;14.30;;
25083;SDS011;13075;55.682;37.564;2023-02-02T04:57:47;33.95;;;15.15;;
25083;SDS011;13075;55.682;37.564;2023-02-02T05:00:13;32.38;;;15.95;;
25083;SDS011;13075;55.682;37.564;2023-02-02T05:02:39;40.22;;;17.45;;
25083;SDS011;13075;55.682;37.564;2023-02-02T05:05:06;45.75;;;17.02;;
25083;SDS011;13075;55.682;37.564;2023-02-02T05:07:33;36.35;;;16.58;;
25083;SDS011;13075;55.682;37.564;2023-02-02T05:09:59;35.28;;;15.55;;
25083;SDS011;13075;55.682;37.564;2023-02-02T05:12:25;38.10;;;17.45;;
25083;SDS011;13075;55.682;37.564;2023-02-02T05:14:50;37.10;;;17.48;;
25083;SDS011;13075;55.682;37.564;2023-02-02T05:17:17;40.75;;;17.90;;
25083;SDS011;13075;55.682;37.564;2023-02-02T05:19:42;37.95;;;15.82;;
25083;SDS011;13075;55.682;37.564;2023-02-02T05:22:08;41.38;;;19.50;;
25083;SDS011;13075;55.682;37.564;2023-02-02T05:24:33;34.65;;;15.88;;
25083;SDS011;13075;55.682;37.564;2023-02-02T05:26:59;42.05;;;19.23;;
25083;SDS011;13075;55.682;37.564;2023-02-02T05:29:28;43.15;;;17.58;;
25083;SDS011;13075;55.682;37.564;2023-02-02T05:31:55;35.58;;;17.75;;
25083;SDS011;13075;55.682;37.564;2023-02-02T05:34:21;33.00;;;16.77;;
25083;SDS011;13075;55.682;37.564;2023-02-02T05:36:47;39.95;;;18.98;;
25083;SDS011;13075;55.682;37.564;2023-02-02T05:39:13;31.75;;;15.98;;
25083;SDS011;13075;55.682;37.564;2023-02-02T05:41:39;38.63;;;17.40;;
25083;SDS011;13075;55.682;37.564;2023-02-02T05:44:04;38.58;;;17.67;;
25083;SDS011;13075;55.682;37.564;2023-02-02T05:46:30;45.17;;;20.48;;
25083;SDS011;13075;55.682;37.564;2023-02-02T05:48:56;45.15;;;18.65;;
25083;SDS011;13075;55.682;37.564;2023-02-02T05:51:42;40.45;;;18.48;;
25083;SDS011;13075;55.682;37.564;2023-02-02T05:54:12;43.40;;;18.60;;
25083;SDS011;13075;55.682;37.564;2023-02-02T05:56:43;43.60;;;19.08;;
25083;SDS011;13075;55.682;37.564;2023-02-02T05:59:09;43.30;;;17.92;;
25083;SDS011;13075;55.682;37.564;2023-02-02T06:01:35;37.83;;;16.65;;
25083;SDS011;13075;55.682;37.564;2023-02-02T06:04:00;37.83;;;18.48;;
25083;SDS011;13075;55.682;37.564;2023-02-02T06:06:26;40.55;;;20.05;;
25083;SDS011;13075;55.682;37.564;2023-02-02T06:08:52;41.03;;;17.98;;
25083;SDS011;13075;55.682;37.564;2023-02-02T06:11:17;36.33;;;18.48;;
25083;SDS011;13075;55.682;37.564;2023-02-02T06:13:43;41.70;;;17.02;;
25083;SDS011;13075;55.682;37.564;2023-02-02T06:16:09;41.40;;;18.23;;
25083;SDS011;13075;55.682;37.564;2023-02-02T06:18:35;40.42;;;18.17;;
25083;SDS011;13075;55.682;37.564;2023-02-02T06:21:02;35.10;;;15.43;;
25083;SDS011;13075;55.682;37.564;2023-02-02T06:23:30;34.78;;;16.92;;
25083;SDS011;13075;55.682;37.564;2023-02-02T06:25:57;35.65;;;17.25;;
25083;SDS011;13075;55.682;37.564;2023-02-02T06:28:24;32.75;;;16.42;;
25083;SDS011;13075;55.682;37.564;2023-02-02T06:30:49;44.50;;;18.85;;
25083;SDS011;13075;55.682;37.564;2023-02-02T06:33:15;39.35;;;18.33;;
25083;SDS011;13075;55.682;37.564;2023-02-02T06:35:41;48.55;;;17.13;;
25083;SDS011;13075;55.682;37.564;2023-02-02T06:38:07;39.33;;;18.88;;
25083;SDS011;13075;55.682;37.564;2023-02-02T06:40:32;35.97;;;17.33;;
25083;SDS011;13075;55.682;37.564;2023-02-02T06:42:59;32.63;;;17.15;;
25083;SDS011;13075;55.682;37.564;2023-02-02T06:45:26;40.60;;;18.05;;
25083;SDS011;13075;55.682;37.564;2023-02-02T06:47:53;41.80;;;19.00;;
25083;SDS011;13075;55.682;37.564;2023-02-02T06:50:18;41.60;;;17.85;;
25083;SDS011;13075;55.682;37.564;2023-02-02T06:52:51;36.45;;;18.25;;
25083;SDS011;13075;55.682;37.564;2023-02-02T06:55:17;36.05;;;17.35;;
25083;SDS011;13075;55.682;37.564;2023-02-02T06:57:43;39.95;;;19.75;;
25083;SDS011;13075;55.682;37.564;2023-02-02T07:00:10;37.08;;;16.88;;
25083;SDS011;13075;55.682;37.564;2023-02-02T07:02:36;37.60;;;17.50;;
25083;SDS011;13075;55.682;37.564;2023-02-02T07:05:02;37.67;;;17.13;;
25083;SDS011;13075;55.682;37.564;2023-02-02T07:07:31;37.05;;;17.63;;
25083;SDS011;13075;55.682;37.564;2023-02-02T07:09:58;35.65;;;17.50;;
25083;SDS011;13075;55.682;37.564;2023-02-02T07:12:23;35.67;;;19.63;;
25083;SDS011;13075;55.682;37.564;2023-02-02T07:14:51;34.65;;;17.48;;
25083;SDS011;13075;55.682;37.564;2023-02-02T07:17:17;39.20;;;18.75;;
25083;SDS011;13075;55.682;37.564;2023-02-02T07:19:42;40.80;;;19.10;;
25083;SDS011;13075;55.682;37.564;2023-02-02T07:22:08;34.88;;;17.85;;
25083;SDS011;13075;55.682;37.564;2023-02-02T07:24:34;37.03;;;17.95;;
25083;SDS011;13075;55.682;37.564;2023-02-02T07:27:02;33.45;;;17.70;;
25083;SDS011;13075;55.682;37.564;2023-02-02T07:29:28;37.35;;;18.38;;
25083;SDS011;13075;55.682;37.564;2023-02-02T07:31:54;35.38;;;16.98;;
25083;SDS011;13075;55.682;37.564;2023-02-02T07:34:20;32.20;;;17.33;;
25083;SDS011;13075;55.682;37.564;2023-02-02T07:36:46;35.50;;;16.92;;
25083;SDS011;13075;55.682;37.564;2023-02-02T07:39:11;41.53;;;18.23;;
25083;SDS011;13075;55.682;37.564;2023-02-02T07:41:37;37.15;;;18.50;;
25083;SDS011;13075;55.682;37.564;2023-02-02T07:44:12;34.47;;;18.05;;
25083;SDS011;13075;55.682;37.564;2023-02-02T07:46:45;31.85;;;16.92;;
25083;SDS011;13075;55.682;37.564;2023-02-02T07:49:11;33.28;;;15.38;;
25083;SDS011;13075;55.682;37.564;2023-02-02T07:51:39;29.83;;;14.63;;
25083;SDS011;13075;55.682;37.564;2023-02-02T07:54:05;34.75;;;17.17;;
25083;SDS011;13075;55.682;37.564;2023-02-02T07:56:30;38.30;;;18.15;;
25083;SDS011;13075;55.682;37.564;2023-02-02T07:58:56;39.85;;;17.33;;
25083;SDS011;13075;55.682;37.564;2023-02-02T08:01:22;36.58;;;16.45;;
25083;SDS011;13075;55.682;37.564;2023-02-02T08:03:50;34.38;;;17.50;;
25083;SDS011;13075;55.682;37.564;2023-02-02T08:06:18;35.72;;;17.30;;
25083;SDS011;13075;55.682;37.564;2023-02-02T08:08:47;31.88;;;16.63;;
25083;SDS011;13075;55.682;37.564;2023-02-02T08:11:14;33.50;;;18.02;;
25083;SDS011;13075;55.682;37.564;2023-02-02T08:13:41;31.95;;;15.27;;
25083;SDS011;13075;55.682;37.564;2023-02-02T08:16:08;34.55;;;18.02;;
25083;SDS011;13075;55.682;37.564;2023-02-02T08:18:34;34.47;;;17.02;;
25083;SDS011;13075;55.682;37.564;2023-02-02T08:21:01;34.95;;;17.45;;
25083;SDS011;13075;55.682;37.564;2023-02-02T08:23:28;32.45;;;15.57;;
25083;SDS011;13075;55.682;37.564;2023-02-02T08:25:54;37.80;;;19.25;;
25083;SDS011;13075;55.682;37.564;2023-02-02T08:28:29;33.00;;;16.75;;
25083;SDS011;13075;55.682;37.564;2023-02-02T08:30:54;33.67;;;17.45;;
25083;SDS011;13075;55.682;37.564;2023-02-02T08:33:20;31.23;;;17.55;;
25083;SDS011;13075;55.682;37.564;2023-02-02T08:35:46;34.83;;;17.75;;
25083;SDS011;13075;55.682;37.564;2023-02-02T08:38:11;32.85;;;16.17;;
25083;SDS011;13075;55.682;37.564;2023-02-02T08:40:37;36.28;;;16.83;;
25083;SDS011;13075;55.682;37.564;2023-02-02T08:43:03;31.40;;;16.73;;
25083;SDS011;13075;55.682;37.564;2023-02-02T08:45:29;29.40;;;16.05;;
25083;SDS011;13075;55.682;37.564;2023-02-02T08:47:55;28.58;;;14.00;;
25083;SDS011;13075;55.682;37.564;2023-02-02T08:50:21;32.67;;;16.40;;
25083;SDS011;13075;55.682;37.564;2023-02-02T08:52:47;29.15;;;15.32;;
25083;SDS011;13075;55.682;37.564;2023-02-02T08:55:12;36.83;;;18.52;;
25083;SDS011;13075;55.682;37.564;2023-02-02T08:57:39;32.28;;;16.13;;
25083;SDS011;13075;55.682;37.564;2023-02-02T09:00:04;36.75;;;17.60;;
25083;SDS011;13075;55.682;37.564;2023-02-02T09:02:30;30.70;;;15.15;;
25083;SDS011;13075;55.682;37.564;2023-02-02T09:04:56;29.60;;;15.35;;
25083;SDS011;13075;55.682;37.564;2023-02-02T09:07:22;27.35;;;14.40;;
25083;SDS011;13075;55.682;37.564;2023-02-02T09:09:47;27.48;;;14.80;;
25083;SDS011;13075;55.682;37.564;2023-02-02T09:12:15;28.50;;;13.25;;
25083;SDS011;13075;55.682;37.564;2023-02-02T09:14:40;27.05;;;14.32;;
25083;SDS011;13075;55.682;37.564;2023-02-02T09:17:06;28.15;;;12.18;;
25083;SDS011;13075;55.682;37.564;2023-02-02T09:19:32;30.13;;;14.35;;
25083;SDS011;13075;55.682;37.564;2023-02-02T09:21:57;33.50;;;16.42;;
25083;SDS011;13075;55.682;37.564;2023-02-02T09:24:23;24.30;;;12.95;;
25083;SDS011;13075;55.682;37.564;2023-02-02T09:26:49;32.97;;;15.52;;
25083;SDS011;13075;55.682;37.564;2023-02-02T09:29:15;29.65;;;16.58;;
25083;SDS011;13075;55.682;37.564;2023-02-02T09:31:42;26.42;;;13.75;;
25083;SDS011;13075;55.682;37.564;2023-02-02T09:34:09;29.63;;;14.00;;
25083;SDS011;13075;55.682;37.564;2023-02-02T09:36:37;28.38;;;14.43;;
25083;SDS011;13075;55.682;37.564;2023-02-02T09:39:04;27.98;;;13.98;;
25083;SDS011;13075;55.682;37.564;2023-02-02T09:52:17;26.73;;;13.77;;
25083;SDS011;13075;55.682;37.564;2023-02-02T09:54:50;29.52;;;13.82;;
25083;SDS011;13075;55.682;37.564;2023-02-02T09:57:36;30.45;;;16.92;;
25083;SDS011;13075;55.682;37.564;2023-02-02T10:00:15;25.20;;;12.77;;
25083;SDS011;13075;55.682;37.564;2023-02-02T10:02:44;32.30;;;16.73;;
25083;SDS011;13075;55.682;37.564;2023-02-02T10:05:15;25.65;;;13.55;;
25083;SDS011;13075;55.682;37.564;2023-02-02T10:07:46;30.60;;;15.85;;
25083;SDS011;13075;55.682;37.564;2023-02-02T10:23:45;29.45;;;15.02;;
25083;SDS011;13075;55.682;37.564;2023-02-02T10:26:21;33.50;;;16.77;;
25083;SDS011;13075;55.682;37.564;2023-02-02T10:29:17;25.52;;;13.82;;
25083;SDS011;13075;55.682;37.564;2023-02-02T10:34:40;31.48;;;16.50;;
25083;SDS011;13075;55.682;37.564;2023-02-02T10:44:59;30.50;;;16.35;;
25083;SDS011;13075;55.682;37.564;2023-02-02T10:47:31;33.47;;;16.15;;
25083;SDS011;13075;55.682;37.564;2023-02-02T10:50:01;31.50;;;15.77;;
25083;SDS011;13075;55.682;37.564;2023-02-02T10:52:40;29.92;;;16.58;;
25083;SDS011;13075;55.682;37.564;2023-02-02T10:55:20;32.92;;;17.45;;
25083;SDS011;13075;55.682;37.564;2023-02-02T10:57:57;35.88;;;19.20;;
25083;SDS011;13075;55.682;37.564;2023-02-02T11:02:57;39.08;;;19.67;;
25083;SDS011;13075;55.682;37.564;2023-02-02T11:05:25;30.10;;;16.38;;
25083;SDS011;13075;55.682;37.564;2023-02-02T11:08:11;35.13;;;17.13;;
25083;SDS011;13075;55.682;37.564;2023-02-02T11:10:44;34.70;;;24.10;;
25083;SDS011;13075;55.682;37.564;2023-02-02T11:13:18;36.00;;;19.08;;
25083;SDS011;13075;55.682;37.564;2023-02-02T11:15:50;36.30;;;18.95;;
25083;SDS011;13075;55.682;37.564;2023-02-02T11:20:54;38.30;;;19.15;;
25083;SDS011;13075;55.682;37.564;2023-02-02T11:23:21;32.83;;;17.10;;
25083;SDS011;13075;55.682;37.564;2023-02-02T11:25:59;32.05;;;15.98;;
25083;SDS011;13075;55.682;37.564;2023-02-02T11:28:26;37.15;;;17.40;;
25083;SDS011;13075;55.682;37.564;2023-02-02T11:30:57;32.33;;;16.98;;
25083;SDS011;13075;55.682;37.564;2023-02-02T11:33:28;28.52;;;17.55;;
25083;SDS011;13075;55.682;37.564;2023-02-02T11:36:01;34.13;;;15.75;;
25083;SDS011;13075;55.682;37.564;2023-02-02T11:38:29;30.48;;;16.33;;
25083;SDS011;13075;55.682;37.564;2023-02-02T11:40:59;30.75;;;16.10;;
25083;SDS011;13075;55.682;37.564;2023-02-02T11:46:22;32.35;;;17.67;;
25083;SDS011;13075;55.682;37.564;2023-02-02T11:48:56;27.95;;;14.82;;
25083;SDS011;13075;55.682;37.564;2023-02-02T11:51:26;32.75;;;17.52;;
25083;SDS011;13075;55.682;37.564;2023-02-02T11:54:06;27.58;;;15.52;;
25083;SDS011;13075;55.682;37.564;2023-02-02T12:04:52;31.25;;;16.33;;
25083;SDS011;13075;55.682;37.564;2023-02-02T12:09:52;36.08;;;17.55;;
25083;SDS011;13075;55.682;37.564;2023-02-02T12:12:33;31.80;;;17.67;;
25083;SDS011;13075;55.682;37.564;2023-02-02T12:15:19;33.38;;;16.67;;
25083;SDS011;13075;55.682;37.564;2023-02-02T12:17:48;36.92;;;17.95;;
25083;SDS011;13075;55.682;37.564;2023-02-02T12:28:37;29.55;;;15.68;;
25083;SDS011;13075;55.682;37.564;2023-02-02T12:34:04;28.23;;;14.43;;
25083;SDS011;13075;55.682;37.564;2023-02-02T12:48:35;41.35;;;18.42;;
25083;SDS011;13075;55.682;37.564;2023-02-02T12:54:29;32.08;;;16.77;;
25083;SDS011;13075;55.682;37.564;2023-02-02T13:08:05;37.75;;;18.02;;
25083;SDS011;13075;55.682;37.564;2023-02-02T13:10:38;39.65;;;17.30;;
25083;SDS011;13075;55.682;37.564;2023-02-02T13:13:08;39.03;;;17.15;;
25083;SDS011;13075;55.682;37.564;2023-02-02T13:15:43;34.30;;;16.92;;
25083;SDS011;13075;55.682;37.564;2023-02-02T13:21:07;34.92;;;17.17;;
25083;SDS011;13075;55.682;37.564;2023-02-02T13:23:40;38.05;;;20.00;;
25083;SDS011;13075;55.682;37.564;2023-02-02T13:31:42;39.83;;;20.23;;
25083;SDS011;13075;55.682;37.564;2023-02-02T13:34:25;36.70;;;19.92;;
25083;SDS011;13075;55.682;37.564;2023-02-02T13:42:45;35.00;;;17.45;;
25083;SDS011;13075;55.682;37.564;2023-02-02T13:51:05;39.55;;;19.38;;
25083;SDS011;13075;55.682;37.564;2023-02-02T13:54:04;39.25;;;19.45;;
25083;SDS011;13075;55.682;37.564;2023-02-02T13:56:41;38.45;;;19.15;;
25083;SDS011;13075;55.682;37.564;2023-02-02T13:59:24;47.25;;;21.45;;
25083;SDS011;13075;55.682;37.564;2023-02-02T14:02:20;37.97;;;18.15;;
25083;SDS011;13075;55.682;37.564;2023-02-02T14:04:56;40.95;;;19.40;;
25083;SDS011;13075;55.682;37.564;2023-02-02T14:07:29;37.00;;;18.63;;
25083;SDS011;13075;55.682;37.564;2023-02-02T14:09:56;42.67;;;19.83;;
25083;SDS011;13075;55.682;37.564;2023-02-02T14:12:29;51.53;;;21.42;;
25083;SDS011;13075;55.682;37.564;2023-02-02T14:14:57;45.30;;;21.35;;
25083;SDS011;13075;55.682;37.564;2023-02-02T14:19:58;43.40;;;21.95;;
25083;SDS011;13075;55.682;37.564;2023-02-02T14:22:46;48.47;;;22.42;;
25083;SDS011;13075;55.682;37.564;2023-02-02T14:27:58;47.42;;;22.17;;
25083;SDS011;13075;55.682;37.564;2023-02-02T14:30:27;46.80;;;21.98;;
25083;SDS011;13075;55.682;37.564;2023-02-02T14:33:22;47.60;;;20.27;;
25083;SDS011;13075;55.682;37.564;2023-02-02T14:40:56;56.58;;;24.20;;
25083;SDS011;13075;55.682;37.564;2023-02-02T14:43:44;52.20;;;22.80;;
25083;SDS011;13075;55.682;37.564;2023-02-02T14:46:49;48.08;;;24.25;;
25083;SDS011;13075;55.682;37.564;2023-02-02T14:49:20;50.75;;;21.98;;
25083;SDS011;13075;55.682;37.564;2023-02-02T14:51:53;52.85;;;22.65;;
25083;SDS011;13075;55.682;37.564;2023-02-02T14:56:57;49.72;;;21.92;;
25083;SDS011;13075;55.682;37.564;2023-02-02T14:59:29;51.13;;;24.48;;
25083;SDS011;13075;55.682;37.564;2023-02-02T15:02:01;50.13;;;23.70;;
25083;SDS011;13075;55.682;37.564;2023-02-02T15:04:39;49.65;;;22.85;;
25083;SDS011;13075;55.682;37.564;2023-02-02T15:09:49;45.35;;;22.95;;
25083;SDS011;13075;55.682;37.564;2023-02-02T15:12:16;47.03;;;22.20;;
25083;SDS011;13075;55.682;37.564;2023-02-02T15:15:01;45.65;;;21.83;;
25083;SDS011;13075;55.682;37.564;2023-02-02T15:22:52;45.80;;;22.13;;
25083;SDS011;13075;55.682;37.564;2023-02-02T15:25:42;41.38;;;21.10;;
25083;SDS011;13075;55.682;37.564;2023-02-02T15:28:20;48.55;;;22.50;;
25083;SDS011;13075;55.682;37.564;2023-02-02T15:31:01;44.15;;;21.10;;
25083;SDS011;13075;55.682;37.564;2023-02-02T15:33:37;53.47;;;22.85;;
25083;SDS011;13075;55.682;37.564;2023-02-02T15:36:12;47.00;;;21.92;;
25083;SDS011;13075;55.682;37.564;2023-02-02T15:38:47;46.35;;;22.58;;
25083;SDS011;13075;55.682;37.564;2023-02-02T15:41:31;44.45;;;21.52;;
25083;SDS011;13075;55.682;37.564;2023-02-02T15:43:59;47.65;;;22.52;;
25083;SDS011;13075;55.682;37.564;2023-02-02T15:46:26;44.65;;;21.88;;
25083;SDS011;13075;55.682;37.564;2023-02-02T15:49:20;44.70;;;22.52;;
25083;SDS011;13075;55.682;37.564;2023-02-02T15:51:54;50.67;;;22.88;;
25083;SDS011;13075;55.682;37.564;2023-02-02T15:54:24;42.05;;;22.58;;
25083;SDS011;13075;55.682;37.564;2023-02-02T15:56:50;50.85;;;23.13;;
25083;SDS011;13075;55.682;37.564;2023-02-02T15:59:18;42.75;;;22.65;;
25083;SDS011;13075;55.682;37.564;2023-02-02T16:01:51;48.95;;;22.52;;
25083;SDS011;13075;55.682;37.564;2023-02-02T16:04:30;42.60;;;22.17;;
25083;SDS011;13075;55.682;37.564;2023-02-02T16:07:03;45.78;;;22.67;;
25083;SDS011;13075;55.682;37.564;2023-02-02T16:09:34;47.33;;;22.35;;
25083;SDS011;13075;55.682;37.564;2023-02-02T16:12:02;42.60;;;21.80;;
25083;SDS011;13075;55.682;37.564;2023-02-02T16:14:30;44.83;;;20.90;;
25083;SDS011;13075;55.682;37.564;2023-02-02T16:17:10;42.95;;;21.83;;
25083;SDS011;13075;55.682;37.564;2023-02-02T16:19:38;48.60;;;22.17;;
25083;SDS011;13075;55.682;37.564;2023-02-02T16:22:09;41.75;;;21.52;;
25083;SDS011;13075;55.682;37.564;2023-02-02T16:24:40;46.45;;;21.10;;
25083;SDS011;13075;55.682;37.564;2023-02-02T16:27:12;49.97;;;22.65;;
25083;SDS011;13075;55.682;37.564;2023-02-02T16:29:42;43.47;;;21.52;;
25083;SDS011;13075;55.682;37.564;2023-02-02T16:32:24;43.50;;;21.38;;
25083;SDS011;13075;55.682;37.564;2023-02-02T16:34:52;43.08;;;20.90;;
25083;SDS011;13075;55.682;37.564;2023-02-02T16:37:22;47.10;;;22.58;;
25083;SDS011;13075;55.682;37.564;2023-02-02T16:39:52;42.28;;;20.85;;
25083;SDS011;13075;55.682;37.564;2023-02-02T16:42:29;39.95;;;21.58;;
25083;SDS011;13075;55.682;37.564;2023-02-02T16:44:56;43.22;;;20.67;;
25083;SDS011;13075;55.682;37.564;2023-02-02T16:49:50;44.25;;;21.52;;
25083;SDS011;13075;55.682;37.564;2023-02-02T16:52:17;44.65;;;21.35;;
25083;SDS011;13075;55.682;37.564;2023-02-02T16:55:03;39.00;;;21.80;;
25083;SDS011;13075;55.682;37.564;2023-02-02T16:57:33;43.60;;;22.40;;
25083;SDS011;13075;55.682;37.564;2023-02-02T16:59:59;49.90;;;21.30;;
25083;SDS011;13075;55.682;37.564;2023-02-02T17:02:29;44.10;;;21.92;;